Time;durP1;ratioP1;P1;durP2;ratioP2;P2;SDS_P1;SDS_P2;PMS_P1;PMS_P2;Temp;Humidity;BMP_temperature;BMP_pressure;BME280_temperature;BME280_humidity;BME280_pressure;Samples;Min_cycle;Max_cycle;Signal;HPM_P1;HPM_P2
2021/12/26 00:00:59;;;;;;;19.13;11.97;;;1.20;99.90;;;;;;5069719;28;20340;-63
2021/12/26 00:03:30;;;;;;;22.00;12.10;;;1.20;99.90;;;;;;5076129;28;20215;-63
2021/12/26 00:06:04;;;;;;;21.83;12.77;;;1.20;99.90;;;;;;5082440;28;20199;-63
2021/12/26 00:08:33;;;;;;;22.80;12.50;;;1.20;99.90;;;;;;5080470;28;20286;-62
2021/12/26 00:11:04;;;;;;;25.13;11.60;;;1.10;99.90;;;;;;5084100;28;20772;-63
2021/12/26 00:13:33;;;;;;;24.67;11.80;;;1.20;99.90;;;;;;5077514;28;20253;-63
2021/12/26 00:16:03;;;;;;;21.93;12.50;;;1.10;99.90;;;;;;5079376;28;20226;-63
2021/12/26 00:18:32;;;;;;;22.30;11.87;;;1.10;99.90;;;;;;5082946;28;20449;-63
2021/12/26 00:21:00;;;;;;;18.37;11.00;;;1.10;99.90;;;;;;5059555;28;20192;-63
2021/12/26 00:23:29;;;;;;;25.50;12.93;;;1.10;99.90;;;;;;5082489;28;20247;-63
2021/12/26 00:25:57;;;;;;;23.53;11.97;;;1.10;99.90;;;;;;5078356;28;20195;-63
2021/12/26 00:28:27;;;;;;;20.53;12.03;;;1.10;99.90;;;;;;5072531;28;20253;-63
2021/12/26 00:30:56;;;;;;;19.60;11.27;;;1.10;99.90;;;;;;5077510;28;20222;-63
2021/12/26 00:33:26;;;;;;;21.20;11.53;;;1.20;99.90;;;;;;5074118;28;20196;-62
2021/12/26 00:35:56;;;;;;;22.53;11.97;;;1.20;99.90;;;;;;5073509;28;20581;-63
2021/12/26 00:38:25;;;;;;;22.17;11.57;;;1.10;99.90;;;;;;5066523;28;20188;-63
2021/12/26 00:40:54;;;;;;;22.13;12.03;;;1.10;99.90;;;;;;5070319;28;20202;-63
2021/12/26 00:43:22;;;;;;;26.33;12.40;;;1.20;99.90;;;;;;5077659;28;20216;-63
2021/12/26 00:45:52;;;;;;;23.20;12.57;;;1.20;99.90;;;;;;5070055;28;20199;-63
2021/12/26 00:48:21;;;;;;;21.13;12.30;;;1.10;99.90;;;;;;5069068;28;20228;-62
2021/12/26 00:50:50;;;;;;;30.27;13.77;;;1.10;99.90;;;;;;5077771;28;20207;-63
2021/12/26 00:53:18;;;;;;;22.50;12.07;;;1.10;99.90;;;;;;5075275;28;20181;-62
2021/12/26 00:55:48;;;;;;;25.40;12.70;;;1.10;99.90;;;;;;5074969;28;20206;-63
2021/12/26 00:58:16;;;;;;;25.03;14.30;;;1.10;99.90;;;;;;5079003;28;20582;-63
2021/12/26 01:00:47;;;;;;;27.90;15.07;;;1.10;99.90;;;;;;5077634;28;20207;-63
2021/12/26 01:03:23;;;;;;;32.10;16.77;;;1.10;99.90;;;;;;5079918;28;20219;-63
2021/12/26 01:05:55;;;;;;;31.57;17.53;;;1.10;99.90;;;;;;5061396;28;20192;-63
2021/12/26 01:08:29;;;;;;;38.07;18.60;;;1.10;99.90;;;;;;5079088;28;20215;-63
2021/12/26 01:11:00;;;;;;;37.00;20.13;;;1.10;99.90;;;;;;5077281;28;20204;-63
2021/12/26 01:13:32;;;;;;;35.47;19.70;;;1.10;99.90;;;;;;5058938;28;20208;-63
2021/12/26 01:16:04;;;;;;;40.43;21.40;;;1.10;99.90;;;;;;5067062;28;20240;-63
2021/12/26 01:18:37;;;;;;;47.07;23.40;;;1.10;99.90;;;;;;5059252;28;20195;-63
2021/12/26 01:21:17;;;;;;;37.90;20.20;;;1.10;99.90;;;;;;5072343;28;20204;-63
2021/12/26 01:23:47;;;;;;;30.43;16.90;;;1.10;99.90;;;;;;5053801;28;20242;-63
2021/12/26 01:26:17;;;;;;;37.00;18.67;;;1.10;99.90;;;;;;5065838;28;20196;-63
2021/12/26 01:28:45;;;;;;;39.33;20.47;;;1.10;99.90;;;;;;5087748;28;20701;-63
2021/12/26 01:31:18;;;;;;;39.23;21.53;;;1.10;99.90;;;;;;5083356;28;20191;-63
2021/12/26 01:33:49;;;;;;;41.53;22.73;;;1.10;99.90;;;;;;5083415;28;20196;-63
2021/12/26 01:36:17;;;;;;;37.83;21.57;;;1.10;99.90;;;;;;5076001;28;20799;-63
2021/12/26 01:38:46;;;;;;;37.47;20.00;;;1.10;99.90;;;;;;5079783;28;20211;-63
2021/12/26 01:41:17;;;;;;;31.50;17.33;;;1.10;99.90;;;;;;5074044;28;20196;-63
2021/12/26 01:43:48;;;;;;;38.37;18.17;;;1.10;99.90;;;;;;5079050;28;20212;-63
2021/12/26 01:46:17;;;;;;;31.00;18.27;;;1.00;99.90;;;;;;5071490;28;20204;-62
2021/12/26 01:48:46;;;;;;;29.70;16.47;;;1.10;99.90;;;;;;5075209;28;20673;-63
2021/12/26 01:51:15;;;;;;;33.33;17.63;;;1.10;99.90;;;;;;5062425;28;20223;-63
2021/12/26 01:53:44;;;;;;;32.33;16.10;;;1.10;99.90;;;;;;5058936;28;20199;-63
2021/12/26 01:56:13;;;;;;;27.47;16.20;;;1.10;99.90;;;;;;5041617;28;20570;-62
2021/12/26 01:58:42;;;;;;;32.73;17.40;;;1.10;99.90;;;;;;5055924;28;20204;-63
2021/12/26 02:01:13;;;;;;;26.13;15.13;;;1.10;99.90;;;;;;5061906;28;20202;-63
2021/12/26 02:03:42;;;;;;;27.70;14.97;;;1.10;99.90;;;;;;5077642;28;20571;-62
2021/12/26 02:06:12;;;;;;;23.57;14.47;;;1.10;99.90;;;;;;5052447;28;20204;-62
2021/12/26 02:08:42;;;;;;;24.97;13.67;;;1.10;99.90;;;;;;5074268;28;20234;-63
2021/12/26 02:11:11;;;;;;;27.40;15.07;;;1.10;99.90;;;;;;5077274;28;20198;-63
2021/12/26 02:13:39;;;;;;;27.17;14.87;;;1.10;99.90;;;;;;5072585;28;20268;-63
2021/12/26 02:16:08;;;;;;;22.20;13.63;;;1.10;99.90;;;;;;5079880;28;20219;-63
2021/12/26 02:18:37;;;;;;;32.33;15.53;;;1.10;99.90;;;;;;5076489;28;20209;-63
2021/12/26 02:21:19;;;;;;;30.63;15.53;;;1.20;99.90;;;;;;5085064;28;20203;-63
2021/12/26 02:23:56;;;;;;;27.43;15.13;;;1.20;99.90;;;;;;5079553;28;20274;-63
2021/12/26 02:29:10;;;;;;;27.30;14.63;;;1.20;99.90;;;;;;5070005;28;20230;-63
2021/12/26 02:31:39;;;;;;;28.10;15.00;;;1.30;99.90;;;;;;5076732;28;20294;-63
2021/12/26 02:34:07;;;;;;;33.87;14.53;;;1.30;99.90;;;;;;5074133;28;20222;-63
2021/12/26 02:36:37;;;;;;;29.87;15.40;;;1.30;99.90;;;;;;5075214;28;20249;-63
2021/12/26 02:39:06;;;;;;;26.63;14.80;;;1.30;99.90;;;;;;5054711;28;20196;-63
2021/12/26 02:41:35;;;;;;;33.57;15.57;;;1.30;99.90;;;;;;5056100;28;20235;-63
2021/12/26 02:44:04;;;;;;;27.10;13.10;;;1.30;99.90;;;;;;5069971;28;20214;-63
2021/12/26 02:46:33;;;;;;;23.03;13.50;;;1.30;99.90;;;;;;5075657;28;20640;-63
2021/12/26 02:49:02;;;;;;;28.53;14.40;;;1.30;99.90;;;;;;5077386;28;20206;-63
2021/12/26 02:51:30;;;;;;;29.70;14.30;;;1.40;99.90;;;;;;5075268;28;20202;-62
2021/12/26 02:54:00;;;;;;;29.00;15.00;;;1.40;99.90;;;;;;5064230;28;20196;-63
2021/12/26 02:56:30;;;;;;;31.73;15.57;;;1.50;99.90;;;;;;5075112;28;20203;-63
2021/12/26 02:58:58;;;;;;;35.30;15.87;;;1.40;99.90;;;;;;5059582;28;20291;-63
2021/12/26 03:01:29;;;;;;;28.40;14.80;;;1.40;99.90;;;;;;5071895;28;20194;-63
2021/12/26 03:03:59;;;;;;;30.87;14.80;;;1.40;99.90;;;;;;5075609;28;20203;-63
2021/12/26 03:06:35;;;;;;;37.63;16.60;;;1.40;99.90;;;;;;5054868;28;20188;-63
2021/12/26 03:09:06;;;;;;;31.80;16.30;;;1.40;99.90;;;;;;5070600;28;20195;-63
2021/12/26 03:11:37;;;;;;;31.47;15.17;;;1.40;99.90;;;;;;5078189;28;20658;-63
2021/12/26 03:14:06;;;;;;;32.30;16.00;;;1.40;99.90;;;;;;5076168;28;20212;-63
2021/12/26 03:16:35;;;;;;;27.30;15.03;;;1.50;99.90;;;;;;5072539;28;20242;-63
2021/12/26 03:19:04;;;;;;;33.40;16.23;;;1.50;99.90;;;;;;5054700;28;20192;-63
2021/12/26 03:21:33;;;;;;;34.87;16.60;;;1.50;99.90;;;;;;5076739;28;20191;-63
2021/12/26 03:24:01;;;;;;;35.63;17.37;;;1.50;99.90;;;;;;5078617;28;20220;-63
2021/12/26 03:26:31;;;;;;;34.87;16.47;;;1.50;99.90;;;;;;5079290;28;20291;-63
2021/12/26 03:29:00;;;;;;;34.87;16.53;;;1.60;99.90;;;;;;5077623;28;20200;-63
2021/12/26 03:31:28;;;;;;;34.20;16.30;;;1.60;99.90;;;;;;5054228;28;20199;-63
2021/12/26 03:33:57;;;;;;;30.73;15.60;;;1.60;99.90;;;;;;5078920;28;20195;-63
2021/12/26 03:36:25;;;;;;;31.07;15.43;;;1.60;99.90;;;;;;5073257;28;20200;-63
2021/12/26 03:38:54;;;;;;;36.70;15.97;;;1.50;99.90;;;;;;5073134;28;20203;-62
2021/12/26 03:41:23;;;;;;;37.20;16.60;;;1.50;99.90;;;;;;5075216;28;20268;-62
2021/12/26 03:43:57;;;;;;;32.87;16.30;;;1.50;99.90;;;;;;5076732;28;20219;-63
2021/12/26 03:46:26;;;;;;;30.23;16.03;;;1.60;99.90;;;;;;5054810;28;20517;-63
2021/12/26 03:48:55;;;;;;;34.10;16.77;;;1.50;99.90;;;;;;5077524;28;20208;-63
2021/12/26 03:51:23;;;;;;;32.10;17.13;;;1.60;99.90;;;;;;5076080;28;20831;-63
2021/12/26 03:53:52;;;;;;;33.03;17.60;;;1.50;99.90;;;;;;5075275;28;20210;-63
2021/12/26 03:56:20;;;;;;;31.67;17.20;;;1.50;99.90;;;;;;5059825;28;20210;-63
2021/12/26 03:58:48;;;;;;;32.00;17.40;;;1.50;99.90;;;;;;5075596;28;20192;-63
2021/12/26 04:01:18;;;;;;;35.63;16.13;;;1.50;99.90;;;;;;5054601;28;20211;-63
2021/12/26 04:03:47;;;;;;;34.73;16.83;;;1.50;99.90;;;;;;5075654;28;20220;-63
2021/12/26 04:06:16;;;;;;;33.97;15.93;;;1.50;99.90;;;;;;5073645;28;20206;-63
2021/12/26 04:08:44;;;;;;;31.63;17.27;;;1.50;99.90;;;;;;5075885;28;20198;-63
2021/12/26 04:11:13;;;;;;;34.03;16.67;;;1.40;99.90;;;;;;5052881;28;20203;-62
2021/12/26 04:13:41;;;;;;;34.13;16.13;;;1.40;99.90;;;;;;5071735;28;20220;-63
2021/12/26 04:16:10;;;;;;;36.73;17.60;;;1.40;99.90;;;;;;5059027;28;20194;-63
2021/12/26 04:18:41;;;;;;;36.87;17.83;;;1.40;99.90;;;;;;5031634;28;20201;-63
2021/12/26 04:21:09;;;;;;;41.67;18.13;;;1.40;99.90;;;;;;5060302;28;20199;-63
2021/12/26 04:23:38;;;;;;;31.40;16.90;;;1.40;99.90;;;;;;5058318;28;20216;-63
2021/12/26 04:26:06;;;;;;;37.63;18.20;;;1.30;99.90;;;;;;5053124;28;20229;-63
2021/12/26 04:28:35;;;;;;;36.93;18.73;;;1.30;99.90;;;;;;5055650;28;20220;-62
2021/12/26 04:31:03;;;;;;;40.87;18.00;;;1.30;99.90;;;;;;5062036;28;20231;-63
2021/12/26 04:33:32;;;;;;;37.73;18.17;;;1.30;99.90;;;;;;5060248;28;20197;-63
2021/12/26 04:36:02;;;;;;;39.63;17.80;;;1.40;99.90;;;;;;5062317;28;20276;-63
2021/12/26 04:38:30;;;;;;;37.73;18.33;;;1.40;99.90;;;;;;5059076;28;20239;-63
2021/12/26 04:41:00;;;;;;;39.67;18.10;;;1.40;99.90;;;;;;5060654;28;20199;-63
2021/12/26 04:43:29;;;;;;;37.20;18.43;;;1.40;99.90;;;;;;5054238;28;20284;-63
2021/12/26 04:45:57;;;;;;;43.67;18.57;;;1.40;99.90;;;;;;5045369;28;20220;-63
2021/12/26 04:48:26;;;;;;;38.80;18.00;;;1.50;99.90;;;;;;5051598;28;20193;-63
2021/12/26 04:50:55;;;;;;;41.40;18.70;;;1.50;99.90;;;;;;5052787;28;20200;-63
2021/12/26 04:53:25;;;;;;;37.50;18.40;;;1.50;99.90;;;;;;5048544;28;20250;-63
2021/12/26 04:55:54;;;;;;;41.30;19.57;;;1.50;99.90;;;;;;5055476;28;20204;-63
2021/12/26 04:58:23;;;;;;;44.20;19.33;;;1.50;99.90;;;;;;5061671;28;20230;-62
2021/12/26 05:00:52;;;;;;;41.90;19.33;;;1.50;99.90;;;;;;5055176;28;20671;-63
2021/12/26 05:03:20;;;;;;;37.40;18.27;;;1.50;99.90;;;;;;5025671;28;20203;-62
2021/12/26 05:05:49;;;;;;;37.63;19.10;;;1.60;99.90;;;;;;5058525;28;20733;-63
2021/12/26 05:08:17;;;;;;;45.40;20.20;;;1.60;99.90;;;;;;5055308;28;20477;-62
2021/12/26 05:10:47;;;;;;;39.50;18.60;;;1.60;99.90;;;;;;5059588;28;20227;-63
2021/12/26 05:13:16;;;;;;;37.27;18.97;;;1.70;99.90;;;;;;5044164;28;20679;-63
2021/12/26 05:15:45;;;;;;;40.73;19.87;;;1.70;99.90;;;;;;5063039;28;20220;-63
2021/12/26 05:18:13;;;;;;;36.60;18.13;;;1.70;99.90;;;;;;5078351;28;20188;-63
2021/12/26 05:20:42;;;;;;;34.00;18.43;;;1.70;99.90;;;;;;5076546;28;20191;-63
2021/12/26 05:23:11;;;;;;;38.70;18.87;;;1.70;99.90;;;;;;5074481;28;20199;-63
2021/12/26 05:25:39;;;;;;;36.83;18.30;;;1.70;99.90;;;;;;5062761;28;20253;-63
2021/12/26 05:28:09;;;;;;;39.00;18.77;;;1.70;99.90;;;;;;5077630;28;20280;-63
2021/12/26 05:30:38;;;;;;;47.23;18.97;;;1.80;99.90;;;;;;5082939;28;20200;-62
2021/12/26 05:33:07;;;;;;;33.67;17.50;;;1.80;99.90;;;;;;5076861;28;20202;-63
2021/12/26 05:35:35;;;;;;;40.13;18.67;;;1.80;99.90;;;;;;5077767;28;20196;-63
2021/12/26 05:38:04;;;;;;;41.30;19.47;;;1.90;99.90;;;;;;5077886;28;20200;-63
2021/12/26 05:40:33;;;;;;;38.87;18.07;;;1.90;99.90;;;;;;5075107;28;20180;-63
2021/12/26 05:43:01;;;;;;;32.87;17.53;;;1.90;99.90;;;;;;5075824;28;20201;-63
2021/12/26 05:45:31;;;;;;;38.73;18.50;;;1.90;99.90;;;;;;5079983;28;20216;-63
2021/12/26 05:47:59;;;;;;;35.60;17.60;;;2.00;99.90;;;;;;5080977;28;20200;-63
2021/12/26 05:50:28;;;;;;;37.77;18.60;;;2.00;99.90;;;;;;5077763;28;20970;-63
2021/12/26 05:52:56;;;;;;;37.17;19.17;;;1.90;99.90;;;;;;5077708;28;20199;-63
2021/12/26 05:55:25;;;;;;;38.83;19.20;;;1.90;99.90;;;;;;5081343;28;20187;-62
2021/12/26 05:57:53;;;;;;;34.57;18.53;;;1.90;99.90;;;;;;5072053;28;20210;-63
2021/12/26 06:00:22;;;;;;;31.83;18.03;;;1.90;99.90;;;;;;5074736;28;20200;-63
2021/12/26 06:03:13;;;;;;;33.87;18.30;;;2.00;99.90;;;;;;5079449;28;20670;-62
2021/12/26 06:06:19;;;;;;;36.10;18.43;;;2.00;99.90;;;;;;5079775;28;20294;-63
2021/12/26 06:08:48;;;;;;;32.00;17.80;;;2.00;99.90;;;;;;5056249;28;20559;-63
2021/12/26 06:11:16;;;;;;;40.47;18.53;;;2.00;99.90;;;;;;5062774;28;20200;-63
2021/12/26 06:13:44;;;;;;;29.23;17.03;;;2.00;99.90;;;;;;5079545;28;20203;-63
2021/12/26 06:16:13;;;;;;;35.77;18.10;;;2.00;99.90;;;;;;5081091;28;20242;-63
2021/12/26 06:18:43;;;;;;;36.40;18.00;;;2.10;99.90;;;;;;5080994;28;20248;-62
2021/12/26 06:21:15;;;;;;;35.13;18.00;;;2.00;99.90;;;;;;5053984;28;20463;-62
2021/12/26 06:23:50;;;;;;;32.57;17.53;;;2.10;99.90;;;;;;5054616;28;20272;-63
2021/12/26 06:26:19;;;;;;;32.67;17.37;;;2.10;99.90;;;;;;5078590;28;20211;-63
2021/12/26 06:28:48;;;;;;;33.10;17.63;;;2.10;99.90;;;;;;5073756;28;20204;-63
2021/12/26 06:31:16;;;;;;;34.00;17.57;;;2.10;99.90;;;;;;5078737;28;20184;-63
2021/12/26 06:33:47;;;;;;;29.30;16.23;;;2.00;99.90;;;;;;5076778;28;20198;-63
2021/12/26 06:36:16;;;;;;;31.93;17.37;;;2.00;99.90;;;;;;5083221;28;20199;-63
2021/12/26 06:38:46;;;;;;;33.17;17.63;;;2.00;99.90;;;;;;5074081;28;20265;-63
2021/12/26 06:41:15;;;;;;;29.80;16.17;;;2.00;99.90;;;;;;5073349;28;20193;-63
2021/12/26 06:43:44;;;;;;;28.73;16.93;;;2.00;99.90;;;;;;5073145;28;20191;-63
2021/12/26 06:46:14;;;;;;;30.27;17.33;;;2.00;99.90;;;;;;5058579;28;20238;-63
2021/12/26 06:48:43;;;;;;;32.90;17.47;;;2.00;99.90;;;;;;5074493;28;20200;-63
2021/12/26 06:51:15;;;;;;;31.00;18.13;;;2.10;99.90;;;;;;5051702;28;20255;-63
2021/12/26 06:53:43;;;;;;;33.23;17.43;;;2.10;99.90;;;;;;5070827;28;20256;-62
2021/12/26 06:56:12;;;;;;;31.00;16.97;;;2.10;99.90;;;;;;5076606;28;20267;-63
2021/12/26 06:58:40;;;;;;;31.33;17.07;;;2.10;99.90;;;;;;5073077;28;20198;-63
2021/12/26 07:01:10;;;;;;;29.40;17.47;;;2.10;99.90;;;;;;5077245;28;20287;-63
2021/12/26 07:03:38;;;;;;;31.60;17.23;;;2.10;99.90;;;;;;5075566;28;20204;-63
2021/12/26 07:06:07;;;;;;;35.97;18.10;;;2.10;99.90;;;;;;5073517;28;20840;-63
2021/12/26 07:08:37;;;;;;;30.57;17.37;;;2.10;99.90;;;;;;5055394;28;20192;-63
2021/12/26 07:11:05;;;;;;;30.57;17.80;;;2.10;99.90;;;;;;5062201;28;20232;-63
2021/12/26 07:13:34;;;;;;;26.90;16.40;;;2.10;99.90;;;;;;5057278;28;20191;-63
2021/12/26 07:16:02;;;;;;;27.50;16.73;;;2.20;99.90;;;;;;5069909;28;20220;-63
2021/12/26 07:18:30;;;;;;;28.63;17.00;;;2.10;99.90;;;;;;5070090;28;20740;-63
2021/12/26 07:20:59;;;;;;;30.77;17.70;;;2.20;99.90;;;;;;5073725;28;20207;-63
2021/12/26 07:23:28;;;;;;;29.80;17.33;;;2.10;99.90;;;;;;5078549;28;20229;-63
2021/12/26 07:25:57;;;;;;;29.53;17.10;;;2.10;99.90;;;;;;5075223;28;20341;-63
2021/12/26 07:28:26;;;;;;;26.63;17.37;;;2.10;99.90;;;;;;5076619;28;20283;-63
2021/12/26 07:30:54;;;;;;;26.87;16.80;;;2.20;99.90;;;;;;5083071;28;20191;-63
2021/12/26 07:33:23;;;;;;;31.23;18.93;;;2.20;99.90;;;;;;5075000;28;20571;-63
2021/12/26 07:35:52;;;;;;;31.37;17.87;;;2.20;99.90;;;;;;5071432;28;20270;-63
2021/12/26 07:38:20;;;;;;;29.40;17.40;;;2.20;99.90;;;;;;5075965;28;20183;-62
2021/12/26 07:40:48;;;;;;;29.83;17.67;;;2.20;99.90;;;;;;5079092;28;20219;-63
2021/12/26 07:43:18;;;;;;;29.07;16.93;;;2.30;99.90;;;;;;5080889;28;20270;-63
2021/12/26 07:45:47;;;;;;;29.47;17.67;;;2.30;99.90;;;;;;5083970;28;20248;-63
2021/12/26 07:48:15;;;;;;;28.13;17.47;;;2.30;99.90;;;;;;5081498;28;20229;-63
2021/12/26 07:50:44;;;;;;;27.73;17.70;;;2.30;99.90;;;;;;5073689;28;20264;-63
2021/12/26 07:53:12;;;;;;;29.83;17.50;;;2.30;99.90;;;;;;5077354;28;20582;-63
2021/12/26 07:55:40;;;;;;;27.93;17.30;;;2.40;99.90;;;;;;5079586;28;20314;-63
2021/12/26 07:58:09;;;;;;;29.53;16.87;;;2.40;99.90;;;;;;5067103;28;20776;-63
2021/12/26 08:00:39;;;;;;;30.73;17.47;;;2.40;99.90;;;;;;5082402;28;20678;-63
2021/12/26 08:03:07;;;;;;;28.17;17.43;;;2.40;99.90;;;;;;5079516;28;20195;-63
2021/12/26 08:05:35;;;;;;;27.27;16.57;;;2.40;99.90;;;;;;5084691;28;20623;-63
2021/12/26 08:08:04;;;;;;;31.73;18.43;;;2.40;99.90;;;;;;5086730;28;20293;-63
2021/12/26 08:10:33;;;;;;;29.80;17.23;;;2.40;99.90;;;;;;5078971;28;20212;-63
2021/12/26 08:13:02;;;;;;;26.77;16.97;;;2.50;99.90;;;;;;5081650;28;20199;-63
2021/12/26 08:15:30;;;;;;;30.47;17.97;;;2.40;99.90;;;;;;5087234;28;20223;-63
2021/12/26 08:18:00;;;;;;;29.23;17.00;;;2.50;99.90;;;;;;5078908;28;20224;-63
2021/12/26 08:20:28;;;;;;;29.87;17.43;;;2.50;99.90;;;;;;5084611;28;20239;-63
2021/12/26 08:22:57;;;;;;;27.27;17.57;;;2.50;99.90;;;;;;5078341;28;20231;-63
2021/12/26 08:25:26;;;;;;;30.67;17.80;;;2.50;99.90;;;;;;5077731;28;20200;-63
2021/12/26 08:27:55;;;;;;;29.33;17.27;;;2.50;99.90;;;;;;5061280;28;20241;-63
2021/12/26 08:30:24;;;;;;;33.67;17.83;;;2.50;99.90;;;;;;5080481;28;20230;-63
2021/12/26 08:32:58;;;;;;;28.73;17.40;;;2.50;99.90;;;;;;5066598;28;20196;-63
2021/12/26 08:35:28;;;;;;;29.53;17.93;;;2.50;99.90;;;;;;5079706;28;20273;-63
2021/12/26 08:37:56;;;;;;;30.67;17.67;;;2.50;99.90;;;;;;5084827;28;20656;-63
2021/12/26 08:40:25;;;;;;;29.60;17.30;;;2.50;99.90;;;;;;5062046;28;20240;-62
2021/12/26 08:42:53;;;;;;;30.03;18.03;;;2.40;99.90;;;;;;5078611;28;20279;-63
2021/12/26 08:45:21;;;;;;;27.80;17.53;;;2.40;99.90;;;;;;5083541;28;20256;-62
2021/12/26 08:47:50;;;;;;;29.90;18.17;;;2.30;99.90;;;;;;5074504;28;20219;-63
2021/12/26 08:50:20;;;;;;;29.30;17.60;;;2.30;99.90;;;;;;5083407;28;20274;-63
2021/12/26 08:52:51;;;;;;;28.77;17.83;;;2.30;99.90;;;;;;5085491;28;20238;-63
2021/12/26 08:55:21;;;;;;;30.57;18.57;;;2.30;99.90;;;;;;5078654;28;20260;-63
2021/12/26 08:57:49;;;;;;;28.13;18.13;;;2.30;99.90;;;;;;5086176;28;20260;-63
2021/12/26 09:00:19;;;;;;;32.47;18.70;;;2.40;99.90;;;;;;5082015;28;20206;-63
2021/12/26 09:02:48;;;;;;;28.83;18.50;;;2.40;99.90;;;;;;5075763;28;20732;-63
2021/12/26 09:05:17;;;;;;;30.03;18.67;;;2.40;99.90;;;;;;5080943;28;20231;-63
2021/12/26 09:07:45;;;;;;;29.50;17.73;;;2.40;99.90;;;;;;5077433;28;20223;-63
2021/12/26 09:10:15;;;;;;;29.07;18.03;;;2.50;99.90;;;;;;5075922;28;20279;-63
2021/12/26 09:12:44;;;;;;;28.93;18.77;;;2.50;99.90;;;;;;5057333;28;20219;-63
2021/12/26 09:15:14;;;;;;;31.33;18.90;;;2.50;99.90;;;;;;5071443;28;20254;-63
2021/12/26 09:17:43;;;;;;;29.93;18.10;;;2.50;99.90;;;;;;5078325;28;20202;-63
2021/12/26 09:20:12;;;;;;;28.93;17.30;;;2.50;99.90;;;;;;5061138;28;20230;-63
2021/12/26 09:22:42;;;;;;;30.23;17.90;;;2.60;99.90;;;;;;5080093;28;20301;-63
2021/12/26 09:25:12;;;;;;;30.47;18.87;;;2.60;99.90;;;;;;5070494;28;20188;-63
2021/12/26 09:27:42;;;;;;;28.30;17.93;;;2.70;99.90;;;;;;5079980;28;20694;-63
2021/12/26 09:30:12;;;;;;;30.80;18.03;;;2.70;99.90;;;;;;5075684;28;20235;-63
2021/12/26 09:32:43;;;;;;;28.63;18.40;;;2.80;99.90;;;;;;5065093;28;20235;-63
2021/12/26 09:35:12;;;;;;;31.43;19.27;;;2.90;99.90;;;;;;5078816;28;20925;-63
2021/12/26 09:37:41;;;;;;;28.97;18.10;;;3.10;99.90;;;;;;5075734;28;20229;-63
2021/12/26 09:40:10;;;;;;;29.03;18.13;;;3.20;99.90;;;;;;5077767;28;20253;-63
2021/12/26 09:42:40;;;;;;;46.13;25.23;;;3.40;99.90;;;;;;5078437;28;20318;-63
2021/12/26 09:45:10;;;;;;;31.40;19.87;;;3.50;99.90;;;;;;5075074;28;20226;-63
2021/12/26 09:47:39;;;;;;;39.00;22.00;;;3.70;99.90;;;;;;5084083;28;20219;-63
2021/12/26 09:50:11;;;;;;;29.00;18.23;;;3.80;99.90;;;;;;5078688;28;20196;-63
2021/12/26 09:52:42;;;;;;;28.67;17.30;;;3.80;99.90;;;;;;5078978;28;20261;-63
2021/12/26 09:55:11;;;;;;;27.37;17.43;;;3.90;99.90;;;;;;5081830;28;20198;-63
2021/12/26 09:57:41;;;;;;;25.27;17.27;;;3.90;99.90;;;;;;5083934;28;20693;-63
2021/12/26 10:00:26;;;;;;;26.00;16.30;;;3.90;99.90;;;;;;5081809;28;20278;-63
2021/12/26 10:03:28;;;;;;;28.37;17.30;;;3.90;99.90;;;;;;5077480;28;20204;-63
2021/12/26 10:06:11;;;;;;;29.07;18.10;;;4.00;99.90;;;;;;5000751;28;20225;-63
2021/12/26 10:08:57;;;;;;;29.80;18.00;;;4.10;99.90;;;;;;5066021;28;20274;-63
2021/12/26 10:11:27;;;;;;;27.60;17.60;;;4.10;99.90;;;;;;5074869;28;20230;-63
2021/12/26 10:13:59;;;;;;;26.23;17.63;;;4.30;99.90;;;;;;5078778;28;20203;-63
2021/12/26 10:16:32;;;;;;;27.17;17.47;;;4.30;99.90;;;;;;5083572;28;20192;-63
2021/12/26 10:19:01;;;;;;;27.40;17.70;;;4.50;99.90;;;;;;5072674;28;20199;-63
2021/12/26 10:21:35;;;;;;;24.77;17.10;;;4.60;99.90;;;;;;5061529;28;20261;-63
2021/12/26 10:24:07;;;;;;;26.40;17.43;;;4.80;99.90;;;;;;5075752;28;20200;-63
2021/12/26 10:26:42;;;;;;;23.43;16.00;;;4.80;99.90;;;;;;5072354;28;20261;-63
2021/12/26 10:29:17;;;;;;;26.07;17.57;;;4.80;99.90;;;;;;5082720;28;20214;-63
2021/12/26 10:31:49;;;;;;;28.10;17.57;;;4.70;99.90;;;;;;5074458;28;20759;-63
2021/12/26 10:34:21;;;;;;;25.33;16.83;;;4.80;99.90;;;;;;5060024;28;20245;-63
2021/12/26 10:36:51;;;;;;;26.33;17.57;;;4.80;99.90;;;;;;5075502;28;20279;-63
2021/12/26 10:39:21;;;;;;;29.93;17.63;;;4.80;99.90;;;;;;5075698;28;20190;-63
2021/12/26 10:41:55;;;;;;;25.23;16.87;;;4.80;99.90;;;;;;5081258;28;20294;-63
2021/12/26 10:44:31;;;;;;;27.23;17.50;;;4.90;99.90;;;;;;5071467;28;20199;-63
2021/12/26 10:47:04;;;;;;;27.40;18.07;;;4.90;99.90;;;;;;5078955;28;20256;-63
2021/12/26 10:49:39;;;;;;;28.30;17.80;;;4.90;99.90;;;;;;5076208;28;20254;-63
2021/12/26 10:52:13;;;;;;;32.00;18.07;;;4.90;99.90;;;;;;5074145;28;20234;-63
2021/12/26 10:54:44;;;;;;;24.87;17.20;;;4.90;99.90;;;;;;5078454;28;20203;-63
2021/12/26 10:57:19;;;;;;;30.77;18.67;;;5.00;99.90;;;;;;5080570;28;20681;-63
2021/12/26 11:00:04;;;;;;;28.33;17.73;;;5.00;99.90;;;;;;5059524;28;20207;-63
2021/12/26 11:02:40;;;;;;;28.80;18.00;;;5.10;99.90;;;;;;5071238;28;20204;-63
2021/12/26 11:05:11;;;;;;;28.13;18.93;;;5.10;99.90;;;;;;5061499;28;20200;-63
2021/12/26 11:07:45;;;;;;;27.13;17.87;;;5.20;99.90;;;;;;5076276;28;20255;-63
2021/12/26 11:10:17;;;;;;;30.73;18.97;;;5.20;99.90;;;;;;5078947;28;20267;-63
2021/12/26 11:12:48;;;;;;;25.13;17.83;;;5.30;99.90;;;;;;5063263;28;20200;-63
2021/12/26 11:15:20;;;;;;;27.43;17.67;;;5.40;99.90;;;;;;5079992;28;20736;-63
2021/12/26 11:17:51;;;;;;;26.40;17.83;;;5.40;99.90;;;;;;5080226;28;20226;-63
2021/12/26 11:20:25;;;;;;;28.53;17.87;;;5.50;99.90;;;;;;5076716;28;20225;-63
2021/12/26 11:22:54;;;;;;;25.40;17.60;;;5.50;99.90;;;;;;5074942;28;20235;-64
2021/12/26 11:25:24;;;;;;;30.17;18.93;;;5.60;99.90;;;;;;5073667;28;20203;-63
2021/12/26 11:27:52;;;;;;;29.87;17.63;;;5.60;99.90;;;;;;5079719;28;20830;-64
2021/12/26 11:30:22;;;;;;;30.20;17.43;;;5.60;99.90;;;;;;5057336;28;20216;-63
2021/12/26 11:32:51;;;;;;;29.87;17.97;;;5.60;99.90;;;;;;5075705;28;20192;-63
2021/12/26 11:35:21;;;;;;;26.00;17.00;;;5.70;99.90;;;;;;5081122;28;20196;-63
2021/12/26 11:37:51;;;;;;;25.93;17.40;;;5.70;99.90;;;;;;5078935;28;20223;-63
2021/12/26 11:40:19;;;;;;;25.67;17.10;;;5.70;99.90;;;;;;5073833;28;20263;-63
2021/12/26 11:43:18;;;;;;;24.60;16.37;;;5.70;99.90;;;;;;5078127;28;20195;-63
2021/12/26 11:45:54;;;;;;;31.00;16.80;;;5.70;99.90;;;;;;5070569;28;20215;-64
2021/12/26 11:49:00;;;;;;;23.43;16.53;;;5.70;99.90;;;;;;5072746;28;20219;-63
2021/12/26 11:51:44;;;;;;;25.03;16.50;;;5.80;99.90;;;;;;5073157;28;20200;-63
2021/12/26 11:54:47;;;;;;;28.37;16.97;;;5.80;99.90;;;;;;5074745;28;20726;-63
2021/12/26 11:57:35;;;;;;;23.57;15.97;;;5.90;99.90;;;;;;5039931;28;20207;-63
2021/12/26 12:00:10;;;;;;;24.53;15.57;;;5.90;99.90;;;;;;5071645;28;20224;-63
2021/12/26 12:03:16;;;;;;;27.47;17.37;;;5.90;99.90;;;;;;5076638;28;20191;-63
2021/12/26 12:05:45;;;;;;;31.13;17.57;;;6.00;99.90;;;;;;5057345;28;20191;-64
2021/12/26 12:08:16;;;;;;;29.13;18.40;;;5.90;99.90;;;;;;5062273;28;20690;-63
2021/12/26 12:10:56;;;;;;;27.80;17.87;;;6.00;99.90;;;;;;5083696;28;20222;-63
2021/12/26 12:13:46;;;;;;;30.40;18.97;;;5.90;99.90;;;;;;5078749;28;20749;-63
2021/12/26 12:16:30;;;;;;;30.13;18.10;;;5.90;99.90;;;;;;5084029;28;20199;-63
2021/12/26 12:19:04;;;;;;;28.40;18.07;;;5.90;99.90;;;;;;5082411;28;20665;-64
2021/12/26 12:21:37;;;;;;;26.37;17.97;;;5.90;99.90;;;;;;5078917;28;20267;-63
2021/12/26 12:24:08;;;;;;;29.30;18.57;;;5.80;99.90;;;;;;5064745;28;20214;-64
2021/12/26 12:26:50;;;;;;;30.17;19.37;;;5.80;99.90;;;;;;5077912;28;20219;-64
2021/12/26 12:29:51;;;;;;;37.83;20.70;;;5.80;99.90;;;;;;5076130;28;20215;-63
2021/12/26 12:32:22;;;;;;;32.03;19.87;;;5.80;99.90;;;;;;5038402;28;20200;-63
2021/12/26 12:34:54;;;;;;;33.20;21.30;;;5.80;99.90;;;;;;5077463;28;20651;-64
2021/12/26 12:37:36;;;;;;;36.10;21.03;;;5.80;99.90;;;;;;5074926;28;20203;-63
2021/12/26 12:40:15;;;;;;;38.47;21.90;;;5.70;99.90;;;;;;5075321;28;20275;-64
2021/12/26 12:42:59;;;;;;;36.97;21.47;;;5.80;99.90;;;;;;5083399;28;20261;-64
2021/12/26 12:45:28;;;;;;;30.87;19.80;;;5.80;99.90;;;;;;5077250;28;20200;-63
2021/12/26 12:48:24;;;;;;;35.87;20.40;;;5.80;99.90;;;;;;5081007;28;20195;-64
2021/12/26 12:50:58;;;;;;;30.20;19.87;;;5.70;99.90;;;;;;5079191;28;20269;-63
2021/12/26 12:53:41;;;;;;;34.17;20.57;;;5.70;99.90;;;;;;5065403;28;20200;-63
2021/12/26 12:56:33;;;;;;;35.23;21.23;;;5.70;99.90;;;;;;5082591;28;20214;-64
2021/12/26 12:59:38;;;;;;;34.47;21.63;;;5.70;99.90;;;;;;5080033;28;20245;-63